createdAt,value
2022-11-03T12:08:57.330Z,1015.19
2022-11-03T12:09:27.282Z,1015.18
2022-11-03T12:09:58.285Z,1015.17
2022-11-03T12:10:28.824Z,1015.18
2022-11-03T12:10:59.394Z,1015.16
2022-11-03T12:11:29.983Z,1015.14
2022-11-03T12:12:05.336Z,1015.13
2022-11-03T12:12:31.225Z,1015.11
2022-11-03T12:13:02.251Z,1015.10
2022-11-03T12:13:33.315Z,1015.09
2022-11-03T12:14:03.846Z,1015.09
2022-11-03T12:14:34.851Z,1015.07
2022-11-03T12:15:05.883Z,1015.07
2022-11-03T12:15:36.924Z,1015.07
2022-11-03T12:16:07.534Z,1015.06
2022-11-03T12:16:38.077Z,1015.05
2022-11-03T12:17:09.109Z,1015.05
2022-11-03T12:17:39.621Z,1015.05
2022-11-03T12:18:10.150Z,1015.04
2022-11-03T12:18:46.122Z,1015.03
2022-11-03T12:19:11.893Z,1015.02
2022-11-03T12:19:42.431Z,1015.02
2022-11-03T12:20:12.971Z,1015.02
2022-11-03T12:20:43.598Z,1015.02
2022-11-03T12:21:14.674Z,1015.01
2022-11-03T12:21:45.692Z,1015.00
2022-11-03T12:22:16.693Z,1015.00
2022-11-03T12:22:47.215Z,1015.00
2022-11-03T12:23:18.237Z,1014.99
2022-11-03T12:23:49.248Z,1014.97
2022-11-03T12:24:20.301Z,1014.96
2022-11-03T12:24:50.772Z,1014.95
2022-11-03T12:25:21.784Z,1014.94
2022-11-03T12:25:52.786Z,1014.93
2022-11-03T12:26:23.816Z,1014.93
2022-11-03T12:26:54.827Z,1014.94
2022-11-03T12:27:25.396Z,1014.94
2022-11-03T12:27:55.903Z,1014.95
2022-11-03T12:28:26.926Z,1014.95
2022-11-03T12:28:57.980Z,1014.96
2022-11-03T12:29:28.495Z,1014.96
2022-11-03T12:29:59.021Z,1014.96
2022-11-03T12:30:29.542Z,1014.96
2022-11-03T12:31:33.041Z,1014.95
2022-11-03T12:32:01.820Z,1014.95
2022-11-03T12:32:35.054Z,1014.94
2022-11-03T12:33:03.389Z,1014.93
2022-11-03T12:33:33.903Z,1014.91
2022-11-03T12:34:04.919Z,1014.89
2022-11-03T12:34:35.965Z,1014.88
2022-11-03T12:35:06.516Z,1014.86
2022-11-03T12:35:37.012Z,1014.84
2022-11-03T12:36:08.092Z,1014.82
2022-11-03T12:36:38.599Z,1014.81
2022-11-03T12:37:09.643Z,1014.80
2022-11-03T12:37:40.648Z,1014.79
2022-11-03T12:38:11.699Z,1014.78
2022-11-03T12:38:42.242Z,1014.76
2022-11-03T12:39:12.774Z,1014.74
2022-11-03T12:39:43.328Z,1014.72
2022-11-03T12:40:13.827Z,1014.69
2022-11-03T12:40:44.341Z,1014.66
2022-11-03T12:41:15.405Z,1014.64
2022-11-03T12:41:45.937Z,1014.62
2022-11-03T12:42:16.468Z,1014.60
2022-11-03T12:42:47.500Z,1014.58
2022-11-03T12:43:18.498Z,1014.55
2022-11-03T12:43:49.623Z,1014.53
2022-11-03T12:44:20.276Z,1014.51
2022-11-03T12:44:50.821Z,1014.49
2022-11-03T12:45:21.342Z,1014.48
2022-11-03T12:45:52.381Z,1014.47
2022-11-03T12:46:23.415Z,1014.47
2022-11-03T12:46:54.415Z,1014.47
2022-11-03T12:47:25.452Z,1014.47
2022-11-03T12:47:55.983Z,1014.46
2022-11-03T12:48:26.537Z,1014.46
2022-11-03T12:48:57.063Z,1014.44
2022-11-03T12:49:28.090Z,1014.43
2022-11-03T12:49:59.146Z,1014.41
2022-11-03T12:50:29.682Z,1014.40
2022-11-03T12:51:00.694Z,1014.37
2022-11-03T12:51:31.222Z,1014.35
2022-11-03T12:52:07.647Z,1014.33
2022-11-03T12:52:32.944Z,1014.31
2022-11-03T12:53:04.226Z,1014.30
2022-11-03T12:53:34.878Z,1014.31
2022-11-03T12:54:05.886Z,1014.31
2022-11-03T12:54:36.427Z,1014.31
2022-11-03T12:55:07.489Z,1014.31
2022-11-03T12:55:39.391Z,1014.31
2022-11-03T12:56:09.032Z,1014.31
2022-11-03T12:56:39.558Z,1014.31
2022-11-03T12:57:10.083Z,1014.30
2022-11-03T12:57:40.623Z,1014.30
2022-11-03T12:58:11.138Z,1014.29
2022-11-03T12:58:42.154Z,1014.28
2022-11-03T12:59:13.191Z,1014.27
2022-11-03T12:59:44.191Z,1014.25
2022-11-03T13:00:15.217Z,1014.23
2022-11-03T13:00:49.997Z,1014.21
2022-11-03T13:01:16.639Z,1014.19
2022-11-03T13:01:47.413Z,1014.17
2022-11-03T13:02:18.071Z,1014.15
2022-11-03T13:02:48.890Z,1014.12
2022-11-03T13:03:19.455Z,1014.10
2022-11-03T13:03:50.505Z,1014.08
2022-11-03T13:04:21.034Z,1014.06
2022-11-03T13:04:52.069Z,1014.04
2022-11-03T13:05:23.103Z,1014.03
2022-11-03T13:05:53.638Z,1014.01
2022-11-03T13:06:24.646Z,1014.00
2022-11-03T13:06:55.635Z,1014.00
2022-11-03T13:07:30.458Z,1013.99
2022-11-03T13:07:56.885Z,1013.99
2022-11-03T13:08:27.890Z,1014.00
2022-11-03T13:08:58.935Z,1014.00
2022-11-03T13:09:29.952Z,1014.00
2022-11-03T13:10:00.993Z,1013.99
2022-11-03T13:10:31.544Z,1013.99
2022-11-03T13:11:02.043Z,1013.99
2022-11-03T13:11:33.039Z,1013.98
2022-11-03T13:12:03.597Z,1013.96
2022-11-03T13:12:34.097Z,1013.95
2022-11-03T13:13:04.910Z,1013.94
2022-11-03T13:13:35.659Z,1013.91
2022-11-03T13:14:06.188Z,1013.88
2022-11-03T13:14:37.177Z,1013.86
2022-11-03T13:15:08.217Z,1013.84
2022-11-03T13:15:39.221Z,1013.82
2022-11-03T13:16:10.260Z,1013.81
2022-11-03T13:16:40.812Z,1013.81
2022-11-03T13:17:11.325Z,1013.82
2022-11-03T13:18:14.283Z,1013.84
2022-11-03T13:18:43.946Z,1013.86
2022-11-03T13:19:14.483Z,1013.87
2022-11-03T13:19:45.019Z,1013.88
2022-11-03T13:20:16.061Z,1013.89
2022-11-03T13:20:47.065Z,1013.90
2022-11-03T13:21:18.069Z,1013.91
2022-11-03T13:21:49.118Z,1013.91
2022-11-03T13:22:19.605Z,1013.90
2022-11-03T13:22:50.627Z,1013.89
2022-11-03T13:23:22.962Z,1013.88
2022-11-03T13:23:52.169Z,1013.86
2022-11-03T13:24:22.691Z,1013.84
2022-11-03T13:24:53.706Z,1013.82
2022-11-03T13:25:24.812Z,1013.79
2022-11-03T13:25:55.408Z,1013.76
2022-11-03T13:26:25.947Z,1013.73
2022-11-03T13:26:57.003Z,1013.71
2022-11-03T13:27:28.011Z,1013.69
2022-11-03T13:27:58.544Z,1013.68
2022-11-03T13:28:29.578Z,1013.67
2022-11-03T13:29:00.105Z,1013.66
2022-11-03T13:29:35.147Z,1013.66
2022-11-03T13:30:01.344Z,1013.66
2022-11-03T13:30:31.872Z,1013.66
2022-11-03T13:31:02.904Z,1013.66
2022-11-03T13:31:33.455Z,1013.66
2022-11-03T13:32:04.460Z,1013.64
2022-11-03T13:32:35.494Z,1013.62
2022-11-03T13:33:06.917Z,1013.60
2022-11-03T13:33:37.059Z,1013.58
2022-11-03T13:34:07.581Z,1013.56
2022-11-03T13:34:38.122Z,1013.54
2022-11-03T13:35:13.473Z,1013.52
2022-11-03T13:35:39.411Z,1013.51
2022-11-03T13:36:09.999Z,1013.50
2022-11-03T13:36:40.579Z,1013.49
2022-11-03T13:37:11.579Z,1013.49
2022-11-03T13:37:42.621Z,1013.48
2022-11-03T13:38:13.664Z,1013.49
2022-11-03T13:38:44.178Z,1013.48
2022-11-03T13:39:14.734Z,1013.48
2022-11-03T13:39:45.238Z,1013.47
2022-11-03T13:40:42.742Z,1013.47
2022-11-03T13:41:08.013Z,1013.46
2022-11-03T13:41:17.751Z,1013.45
2022-11-03T13:41:48.749Z,1013.43
2022-11-03T13:42:19.773Z,1013.41
2022-11-03T13:42:50.330Z,1013.39
2022-11-03T13:43:20.864Z,1013.36
2022-11-03T13:43:51.880Z,1013.34
2022-11-03T13:44:22.912Z,1013.33
2022-11-03T13:44:53.918Z,1013.31
2022-11-03T13:45:24.940Z,1013.30
2022-11-03T13:45:55.473Z,1013.29
2022-11-03T13:46:26.498Z,1013.28
2022-11-03T13:46:57.012Z,1013.28
2022-11-03T13:47:42.024Z,1013.27
2022-11-03T13:50:13.241Z,1013.26
2022-11-03T13:50:13.996Z,1013.27
2022-11-03T13:50:31.970Z,1013.28
2022-11-03T13:51:02.573Z,1013.28
2022-11-03T13:51:33.082Z,1013.29
2022-11-03T13:52:04.093Z,1013.29
2022-11-03T13:52:34.612Z,1013.29
2022-11-03T13:56:13.158Z,1013.24
2022-11-03T13:59:29.539Z,1013.23
2022-11-03T13:59:45.790Z,1013.24
2022-11-03T14:00:15.793Z,1013.23
2022-11-03T14:00:46.928Z,1013.22
2022-11-03T14:01:17.589Z,1013.21
2022-11-03T14:01:48.347Z,1013.19
2022-11-03T14:04:52.670Z,1013.14
2022-11-03T14:05:23.703Z,1013.13
2022-11-03T14:05:54.741Z,1013.13
2022-11-03T14:06:25.258Z,1013.12
2022-11-03T14:06:56.289Z,1013.12
2022-11-03T14:07:27.339Z,1013.11
2022-11-03T14:07:57.867Z,1013.10
2022-11-03T14:08:28.919Z,1013.09
2022-11-03T14:08:59.432Z,1013.08
2022-11-03T14:09:30.487Z,1013.06
2022-11-03T14:10:03.879Z,1013.05
2022-11-03T14:10:31.771Z,1013.04
2022-11-03T14:11:02.307Z,1013.04
2022-11-03T14:11:32.848Z,1013.04
2022-11-03T14:12:03.388Z,1013.03
2022-11-03T14:12:34.405Z,1013.02
2022-11-03T14:13:05.449Z,1013.03
2022-11-03T14:13:35.645Z,1013.02
2022-11-03T14:14:06.698Z,1013.01
2022-11-03T14:14:37.223Z,1013.01
2022-11-03T14:15:08.227Z,1013.00
2022-11-03T14:15:39.268Z,1012.99
2022-11-03T14:16:10.395Z,1012.99
2022-11-03T14:16:41.068Z,1012.99
2022-11-03T14:17:11.610Z,1012.98
2022-11-03T14:17:42.637Z,1012.98
2022-11-03T14:18:13.157Z,1012.97
2022-11-03T14:18:44.205Z,1012.97
2022-11-03T14:19:15.221Z,1012.96
2022-11-03T14:19:51.726Z,1012.94
2022-11-03T14:20:16.569Z,1012.93
2022-11-03T14:20:47.107Z,1012.91
2022-11-03T14:21:17.655Z,1012.89
2022-11-03T14:21:48.156Z,1012.88
2022-11-03T14:22:19.214Z,1012.85
2022-11-03T14:22:50.223Z,1012.83
2022-11-03T14:23:21.240Z,1012.81
2022-11-03T14:23:52.266Z,1012.79
2022-11-03T14:24:23.285Z,1012.78
2022-11-03T14:24:53.815Z,1012.78
2022-11-03T14:25:24.833Z,1012.77
2022-11-03T14:26:06.310Z,1012.77
